createdAt,value
2022-10-15T00:02:22.772Z,49.90
2022-10-15T00:04:49.966Z,47.58
2022-10-15T00:07:17.475Z,61.78
2022-10-15T00:09:49.232Z,58.03
2022-10-15T00:12:19.019Z,52.47
2022-10-15T00:14:46.213Z,57.40
2022-10-15T00:17:13.729Z,62.63
2022-10-15T00:19:42.637Z,53.13
2022-10-15T00:22:09.915Z,60.97
2022-10-15T00:24:38.380Z,65.70
2022-10-15T00:27:05.829Z,78.35
2022-10-15T00:29:35.622Z,58.95
2022-10-15T00:32:03.005Z,63.50
2022-10-15T00:34:30.844Z,61.67
2022-10-15T00:36:59.194Z,68.18
2022-10-15T00:39:26.453Z,66.80
2022-10-15T00:41:53.956Z,71.70
2022-10-15T00:44:27.488Z,66.60
2022-10-15T00:47:14.588Z,65.13
2022-10-15T00:49:59.032Z,70.05
2022-10-15T00:52:33.857Z,72.05
2022-10-15T00:55:10.717Z,73.57
2022-10-15T00:57:38.864Z,66.05
2022-10-15T01:00:12.689Z,79.03
2022-10-15T01:02:40.045Z,71.78
2022-10-15T01:05:08.631Z,66.32
2022-10-15T01:07:35.895Z,59.58
2022-10-15T01:10:07.481Z,77.22
2022-10-15T01:13:07.277Z,77.43
2022-10-15T01:15:48.868Z,81.47
2022-10-15T01:18:22.597Z,67.72
2022-10-15T01:21:11.348Z,78.30
2022-10-15T01:24:15.618Z,76.15
2022-10-15T01:27:05.637Z,67.57
2022-10-15T01:30:01.627Z,66.20
2022-10-15T01:32:32.191Z,63.60
2022-10-15T01:35:40.707Z,72.10
2022-10-15T01:38:23.468Z,70.97
2022-10-15T01:40:59.156Z,64.57
2022-10-15T01:43:44.204Z,67.53
2022-10-15T01:46:46.740Z,68.75
2022-10-15T01:49:24.988Z,77.82
2022-10-15T01:51:55.290Z,65.07
2022-10-15T01:54:25.864Z,64.68
2022-10-15T01:56:56.235Z,61.42
2022-10-15T01:59:29.208Z,69.97
2022-10-15T02:01:58.081Z,75.45
2022-10-15T02:04:28.457Z,64.75
2022-10-15T02:07:13.901Z,77.88
2022-10-15T02:09:50.039Z,60.72
2022-10-15T02:12:52.807Z,70.90
2022-10-15T02:15:45.529Z,47.30
2022-10-15T02:18:18.698Z,57.05
2022-10-15T02:20:56.195Z,51.75
2022-10-15T02:23:36.560Z,59.20
2022-10-15T02:26:08.100Z,54.17
2022-10-15T02:28:38.573Z,52.60
2022-10-15T02:31:07.935Z,57.10
2022-10-15T02:33:37.482Z,48.72
2022-10-15T02:36:05.779Z,47.08
2022-10-15T02:38:35.359Z,51.50
2022-10-15T02:41:03.288Z,42.28
2022-10-15T02:43:31.024Z,44.08
2022-10-15T02:45:58.478Z,63.50
2022-10-15T02:48:26.157Z,44.40
2022-10-15T02:50:53.613Z,40.17
2022-10-15T02:53:20.961Z,44.53
2022-10-15T02:55:48.214Z,37.35
2022-10-15T02:58:15.313Z,40.45
2022-10-15T03:00:44.249Z,50.88
2022-10-15T03:03:14.189Z,40.85
2022-10-15T03:05:43.736Z,50.95
2022-10-15T03:08:11.306Z,48.97
2022-10-15T03:10:38.529Z,45.08
2022-10-15T03:13:07.150Z,46.08
2022-10-15T03:15:41.790Z,51.50
2022-10-15T03:18:09.149Z,47.38
2022-10-15T03:20:36.907Z,51.53
2022-10-15T03:23:04.127Z,50.83
2022-10-15T03:25:32.533Z,57.50
2022-10-15T03:28:02.991Z,59.97
2022-10-15T03:30:40.068Z,57.63
2022-10-15T03:33:08.241Z,74.53
2022-10-15T03:35:36.396Z,64.18
2022-10-15T03:38:04.948Z,60.00
2022-10-15T03:40:32.355Z,71.80
2022-10-15T03:43:11.695Z,69.93
2022-10-15T03:45:39.158Z,78.28
2022-10-15T03:48:20.256Z,66.75
2022-10-15T03:50:47.617Z,86.22
2022-10-15T03:53:16.225Z,71.97
2022-10-15T03:55:43.747Z,78.28
2022-10-15T03:58:11.044Z,66.22
2022-10-15T04:00:45.345Z,65.60
2022-10-15T04:03:12.913Z,72.45
2022-10-15T04:05:40.062Z,75.13
2022-10-15T04:08:10.494Z,78.00
2022-10-15T04:10:41.001Z,75.65
2022-10-15T04:13:08.204Z,84.18
2022-10-15T04:15:39.531Z,65.18
2022-10-15T04:18:10.246Z,78.28
2022-10-15T04:20:38.128Z,81.53
2022-10-15T04:23:14.287Z,80.30
2022-10-15T04:25:46.206Z,82.93
2022-10-15T04:28:13.408Z,71.53
2022-10-15T04:30:44.194Z,83.25
2022-10-15T04:33:13.792Z,89.72
2022-10-15T04:35:40.885Z,90.57
2022-10-15T04:38:10.444Z,75.70
2022-10-15T04:41:18.805Z,77.05
2022-10-15T04:44:03.071Z,81.70
2022-10-15T04:46:32.376Z,101.45
2022-10-15T04:49:04.590Z,85.50
2022-10-15T04:51:32.060Z,74.50
2022-10-15T04:54:04.176Z,84.40
2022-10-15T04:56:32.439Z,76.18
2022-10-15T04:59:00.489Z,87.63
2022-10-15T05:01:31.539Z,71.20
2022-10-15T05:04:10.073Z,77.22
2022-10-15T05:06:37.895Z,67.35
2022-10-15T05:09:21.852Z,75.25
2022-10-15T05:11:51.387Z,75.75
2022-10-15T05:14:18.824Z,91.68
2022-10-15T05:17:02.336Z,91.20
2022-10-15T05:19:32.129Z,87.63
2022-10-15T05:22:00.239Z,103.82
2022-10-15T05:24:27.660Z,93.15
2022-10-15T05:29:33.069Z,89.17
2022-10-15T05:32:00.748Z,96.35
2022-10-15T05:34:30.901Z,103.93
2022-10-15T05:37:08.236Z,103.40
2022-10-15T05:39:35.657Z,105.28
2022-10-15T05:42:03.059Z,109.13
2022-10-15T05:44:38.620Z,118.28
2022-10-15T05:47:11.650Z,125.47
2022-10-15T05:49:39.691Z,113.35
2022-10-15T05:52:33.063Z,121.78
2022-10-15T05:55:03.321Z,121.13
2022-10-15T05:57:30.675Z,130.93
2022-10-15T05:59:57.816Z,104.40
2022-10-15T06:02:26.075Z,116.20
2022-10-15T06:04:53.821Z,97.95
2022-10-15T06:07:21.577Z,120.97
2022-10-15T06:09:48.824Z,106.40
2022-10-15T06:12:17.658Z,110.38
2022-10-15T06:14:45.110Z,113.30
2022-10-15T06:17:12.185Z,109.10
2022-10-15T06:19:42.409Z,105.47
2022-10-15T06:22:10.496Z,106.32
2022-10-15T06:24:37.869Z,110.60
2022-10-15T06:27:09.989Z,104.85
2022-10-15T06:29:37.075Z,112.40
2022-10-15T06:32:04.554Z,102.30
2022-10-15T06:34:32.002Z,111.03
2022-10-15T06:36:59.122Z,91.55
2022-10-15T06:39:26.293Z,100.72
2022-10-15T06:41:53.728Z,119.10
2022-10-15T06:44:20.874Z,102.38
2022-10-15T06:46:48.029Z,103.10
2022-10-15T06:49:15.391Z,98.90
2022-10-15T06:51:43.355Z,110.00
2022-10-15T06:54:10.768Z,107.75
2022-10-15T06:56:38.172Z,92.75
2022-10-15T06:59:05.763Z,107.38
2022-10-15T07:01:32.947Z,114.13
2022-10-15T07:04:00.085Z,96.68
2022-10-15T07:06:27.331Z,106.00
2022-10-15T07:08:54.805Z,99.68
2022-10-15T07:11:22.021Z,109.40
2022-10-15T07:13:49.244Z,102.07
2022-10-15T07:16:16.652Z,100.85
2022-10-15T07:18:43.792Z,103.10
2022-10-15T07:23:43.699Z,106.88
2022-10-15T07:26:11.588Z,118.07
2022-10-15T07:28:40.105Z,112.40
2022-10-15T07:31:08.259Z,110.60
2022-10-15T07:33:36.496Z,100.95
2022-10-15T07:36:09.731Z,111.30
2022-10-15T07:38:37.552Z,105.82
2022-10-15T07:41:05.768Z,101.03
2022-10-15T07:43:40.522Z,99.40
2022-10-15T07:46:09.123Z,112.60
2022-10-15T07:48:36.697Z,92.47
2022-10-15T07:51:06.851Z,117.50
2022-10-15T07:53:35.204Z,109.10
2022-10-15T07:56:09.158Z,109.28
2022-10-15T07:58:38.873Z,103.40
2022-10-15T08:01:08.152Z,99.05
2022-10-15T08:03:36.548Z,112.18
2022-10-15T08:06:06.483Z,97.63
2022-10-15T08:08:35.250Z,114.55
2022-10-15T08:11:11.462Z,117.75
2022-10-15T08:13:41.632Z,108.00
2022-10-15T08:16:10.640Z,116.38
2022-10-15T08:18:38.518Z,95.88
2022-10-15T08:21:07.891Z,85.60
2022-10-15T08:23:36.805Z,97.20
2022-10-15T08:26:04.690Z,94.00
2022-10-15T08:28:34.966Z,84.90
2022-10-15T08:31:05.544Z,86.07
2022-10-15T08:33:35.176Z,83.00
2022-10-15T08:36:02.894Z,82.07
2022-10-15T08:38:33.163Z,89.75
2022-10-15T08:41:01.480Z,83.15
2022-10-15T08:43:34.857Z,79.25
2022-10-15T08:46:11.742Z,79.80
2022-10-15T08:48:44.272Z,79.65
2022-10-15T08:51:18.992Z,74.75
2022-10-15T08:53:54.745Z,80.18
2022-10-15T08:56:27.570Z,82.85
2022-10-15T09:01:47.352Z,75.72
2022-10-15T09:04:25.141Z,72.43
2022-10-15T09:07:04.092Z,67.45
2022-10-15T09:09:47.089Z,70.20
2022-10-15T09:15:02.098Z,63.72
2022-10-15T09:17:32.975Z,67.88
2022-10-15T09:20:05.594Z,71.88
2022-10-15T09:22:34.319Z,66.30
2022-10-15T09:25:15.907Z,66.30
2022-10-15T09:27:46.376Z,56.80
2022-10-15T09:30:40.107Z,54.28
2022-10-15T09:33:36.403Z,60.92
2022-10-15T09:36:17.111Z,54.33
2022-10-15T09:38:44.727Z,48.40
2022-10-15T09:41:26.952Z,41.40
2022-10-15T09:43:57.785Z,42.50
2022-10-15T09:46:29.264Z,41.67
2022-10-15T09:49:09.223Z,47.25
2022-10-15T09:51:49.314Z,47.15
2022-10-15T09:54:30.700Z,47.53
2022-10-15T09:56:59.821Z,46.25
2022-10-15T09:59:27.998Z,50.00
2022-10-15T10:02:02.558Z,48.38
2022-10-15T10:04:32.581Z,50.53
2022-10-15T10:07:07.715Z,56.20
2022-10-15T10:09:56.236Z,54.78
2022-10-15T10:12:36.097Z,60.58
2022-10-15T10:15:25.224Z,57.40
2022-10-15T10:17:53.903Z,54.42
2022-10-15T10:20:27.142Z,55.97
2022-10-15T10:23:00.337Z,55.75
2022-10-15T10:25:27.840Z,46.95
2022-10-15T10:28:13.203Z,50.67
2022-10-15T10:30:53.404Z,45.03
2022-10-15T10:33:27.248Z,44.05
2022-10-15T10:35:56.821Z,44.20
2022-10-15T10:38:46.229Z,41.20
2022-10-15T10:41:13.781Z,39.90
2022-10-15T10:43:55.439Z,42.50
2022-10-15T10:46:26.797Z,43.95
2022-10-15T10:48:55.231Z,43.78
2022-10-15T10:51:25.944Z,42.05
2022-10-15T10:54:05.562Z,47.47
2022-10-15T10:56:38.802Z,42.17
2022-10-15T10:59:33.188Z,37.63
2022-10-15T11:02:00.573Z,37.50
2022-10-15T11:04:37.096Z,35.30
2022-10-15T11:07:27.365Z,41.80
2022-10-15T11:10:17.772Z,37.85
2022-10-15T11:13:31.342Z,34.20
2022-10-15T11:16:08.136Z,36.53
2022-10-15T11:18:59.068Z,34.90
2022-10-15T11:21:48.071Z,34.03
2022-10-15T11:24:48.318Z,29.13
2022-10-15T11:28:08.432Z,30.08
2022-10-15T11:30:47.399Z,28.83
2022-10-15T11:33:43.473Z,26.92
2022-10-15T11:36:41.665Z,25.55
2022-10-15T11:39:20.625Z,24.92
2022-10-15T11:42:03.193Z,22.02
2022-10-15T11:44:42.526Z,20.27
2022-10-15T11:47:14.027Z,20.52
2022-10-15T11:50:23.765Z,22.80
2022-10-15T11:52:59.805Z,21.45
2022-10-15T11:55:51.225Z,24.90
2022-10-15T11:58:51.293Z,20.55
2022-10-15T12:01:37.625Z,19.92
2022-10-15T12:04:32.659Z,22.30
2022-10-15T12:07:05.132Z,18.27
2022-10-15T12:09:41.953Z,18.55
2022-10-15T12:12:33.892Z,18.20
2022-10-15T12:15:22.620Z,16.63
2022-10-15T12:18:11.297Z,19.00
2022-10-15T12:20:45.219Z,18.02
2022-10-15T12:23:37.703Z,17.85
2022-10-15T12:26:25.349Z,17.33
2022-10-15T12:28:59.536Z,15.23
2022-10-15T12:31:48.594Z,14.98
2022-10-15T12:34:44.901Z,14.55
2022-10-15T12:37:19.705Z,16.13
2022-10-15T12:39:56.890Z,14.48
2022-10-15T12:42:38.761Z,18.42
2022-10-15T12:45:18.846Z,15.57
2022-10-15T12:48:16.797Z,14.73
2022-10-15T12:50:51.661Z,15.77
2022-10-15T12:53:34.765Z,17.00
2022-10-15T12:56:14.231Z,13.25
2022-10-15T12:58:51.536Z,14.40
2022-10-15T13:01:21.573Z,14.55
2022-10-15T13:03:48.711Z,12.75
2022-10-15T13:06:23.447Z,16.17
2022-10-15T13:08:56.629Z,15.45
2022-10-15T13:11:54.885Z,13.38
2022-10-15T13:14:36.884Z,13.75
2022-10-15T13:17:14.859Z,14.27
2022-10-15T13:19:49.034Z,15.25
2022-10-15T13:22:29.881Z,15.95
2022-10-15T13:24:57.941Z,13.82
2022-10-15T13:27:34.476Z,12.27
2022-10-15T13:30:02.930Z,10.82
2022-10-15T13:32:40.331Z,9.18
2022-10-15T13:35:14.251Z,9.30
2022-10-15T13:37:43.606Z,8.10
2022-10-15T13:40:26.664Z,9.68
2022-10-15T13:43:08.817Z,9.35
2022-10-15T13:45:37.378Z,9.88
2022-10-15T13:48:12.486Z,8.77
2022-10-15T13:50:40.673Z,10.50
2022-10-15T13:53:21.406Z,9.15
2022-10-15T13:55:54.268Z,11.38
2022-10-15T13:58:34.085Z,9.40
2022-10-15T14:01:07.685Z,12.20
2022-10-15T14:03:38.720Z,12.27
2022-10-15T14:06:21.660Z,14.10
2022-10-15T14:11:18.837Z,10.02
2022-10-15T14:13:55.997Z,11.05
2022-10-15T14:16:41.875Z,10.27
2022-10-15T14:19:12.575Z,9.82
2022-10-15T14:21:47.541Z,8.05
2022-10-15T14:24:17.288Z,8.25
2022-10-15T14:27:19.279Z,8.95
2022-10-15T14:29:49.307Z,8.15
2022-10-15T14:32:45.653Z,5.40
2022-10-15T14:35:37.066Z,3.95
2022-10-15T14:38:10.485Z,6.40
2022-10-15T14:40:37.750Z,4.68
2022-10-15T14:43:19.010Z,5.38
2022-10-15T14:45:52.225Z,6.05
2022-10-15T14:48:31.368Z,5.68
2022-10-15T14:51:02.946Z,6.18
2022-10-15T14:53:36.943Z,6.18
2022-10-15T14:56:14.969Z,6.25
2022-10-15T14:58:52.077Z,6.15
2022-10-15T15:01:21.275Z,13.50
2022-10-15T15:03:53.767Z,5.95
2022-10-15T15:06:28.720Z,5.90
2022-10-15T15:09:00.365Z,5.57
2022-10-15T15:11:29.039Z,4.93
2022-10-15T15:13:56.764Z,6.00
2022-10-15T15:16:23.983Z,4.35
2022-10-15T15:18:53.743Z,4.25
2022-10-15T15:21:27.492Z,6.00
2022-10-15T15:23:55.459Z,4.63
2022-10-15T15:26:22.570Z,5.00
2022-10-15T15:28:50.058Z,5.15
2022-10-15T15:31:18.678Z,5.20
2022-10-15T15:33:46.096Z,4.28
2022-10-15T15:36:19.021Z,3.75
2022-10-15T15:38:49.998Z,4.32
2022-10-15T15:41:29.885Z,3.97
2022-10-15T15:43:57.340Z,4.65
2022-10-15T15:46:25.020Z,6.35
2022-10-15T15:48:53.228Z,3.72
2022-10-15T15:51:26.774Z,4.57
2022-10-15T15:53:54.179Z,3.60
2022-10-15T15:56:34.575Z,4.22
2022-10-15T15:59:01.907Z,6.65
2022-10-15T16:01:29.336Z,7.65
2022-10-15T16:03:56.936Z,4.53
2022-10-15T16:06:24.261Z,4.72
2022-10-15T16:08:53.094Z,6.03
2022-10-15T16:11:20.240Z,6.97
2022-10-15T16:13:47.503Z,7.63
2022-10-15T16:16:14.796Z,8.02
2022-10-15T16:18:43.390Z,8.75
2022-10-15T16:21:12.955Z,7.07
2022-10-15T16:23:55.320Z,7.63
2022-10-15T16:26:22.922Z,9.55
2022-10-15T16:28:53.879Z,6.93
2022-10-15T16:32:32.539Z,9.85
2022-10-15T16:34:31.425Z,8.82
2022-10-15T16:37:01.441Z,5.10
2022-10-15T16:39:30.577Z,5.53
2022-10-15T16:45:34.535Z,6.55
2022-10-15T16:48:01.793Z,10.77
2022-10-15T16:50:28.986Z,11.85
2022-10-15T16:52:56.435Z,9.27
2022-10-15T16:55:24.095Z,9.75
2022-10-15T16:57:51.399Z,8.10
2022-10-15T17:00:18.725Z,7.60
2022-10-15T17:02:46.190Z,7.43
2022-10-15T17:05:13.771Z,8.80
2022-10-15T17:07:43.959Z,9.18
2022-10-15T17:10:27.038Z,7.35
2022-10-15T17:12:54.487Z,10.15
2022-10-15T17:15:21.898Z,9.55
2022-10-15T17:17:49.365Z,7.65
2022-10-15T17:20:17.975Z,17.13
2022-10-15T17:22:48.302Z,7.85
2022-10-15T17:25:19.759Z,10.10
2022-10-15T17:27:58.269Z,10.60
2022-10-15T17:30:28.768Z,6.68
2022-10-15T17:33:01.124Z,8.93
2022-10-15T17:35:28.887Z,6.90
2022-10-15T17:37:59.978Z,8.10
2022-10-15T17:40:32.264Z,9.65
2022-10-15T17:42:59.865Z,8.32
2022-10-15T17:45:37.853Z,6.68
2022-10-15T17:48:08.770Z,12.70
2022-10-15T17:50:44.546Z,10.90
2022-10-15T17:53:16.162Z,6.75
2022-10-15T17:55:43.822Z,4.57
2022-10-15T17:58:11.238Z,7.78
2022-10-15T18:00:38.918Z,13.50
2022-10-15T18:03:06.322Z,8.95
2022-10-15T18:05:33.445Z,9.43
2022-10-15T18:08:04.135Z,8.20
2022-10-15T18:10:38.496Z,8.23
2022-10-15T18:13:16.061Z,8.23
2022-10-15T18:15:50.665Z,9.88
2022-10-15T18:18:23.078Z,9.50
2022-10-15T18:20:50.919Z,10.57
2022-10-15T18:23:18.230Z,9.38
2022-10-15T18:25:48.875Z,8.23
2022-10-15T18:28:16.321Z,12.80
2022-10-15T18:30:45.979Z,11.13
2022-10-15T18:33:16.462Z,12.43
2022-10-15T18:35:43.698Z,12.77
2022-10-15T18:38:11.217Z,13.70
2022-10-15T18:40:49.259Z,5.75
2022-10-15T18:43:19.595Z,8.57
2022-10-15T18:45:49.337Z,11.10
2022-10-15T18:48:21.704Z,9.25
2022-10-15T18:50:49.008Z,10.68
2022-10-15T18:53:16.870Z,11.05
2022-10-15T18:55:44.610Z,17.15
2022-10-15T18:58:12.426Z,14.27
2022-10-15T19:00:39.699Z,8.38
2022-10-15T19:03:10.548Z,12.45
2022-10-15T19:05:39.038Z,7.13
2022-10-15T19:08:06.498Z,7.40
2022-10-15T19:10:36.493Z,5.90
2022-10-15T19:13:04.193Z,6.13
2022-10-15T19:15:31.760Z,10.65
2022-10-15T19:17:59.034Z,7.75
2022-10-15T19:20:26.341Z,12.93
2022-10-15T19:22:53.990Z,11.80
2022-10-15T19:25:21.349Z,5.78
2022-10-15T19:27:49.571Z,9.52
2022-10-15T19:30:16.886Z,9.48
2022-10-15T19:32:46.577Z,10.25
2022-10-15T19:35:14.423Z,7.00
2022-10-15T19:37:41.862Z,7.22
2022-10-15T19:40:09.612Z,11.02
2022-10-15T19:42:36.760Z,20.58
2022-10-15T19:45:04.436Z,8.07
2022-10-15T19:47:31.832Z,9.30
2022-10-15T19:49:59.274Z,9.05
2022-10-15T19:52:26.449Z,16.00
2022-10-15T19:54:53.588Z,8.23
2022-10-15T19:57:21.129Z,17.42
2022-10-15T19:59:48.606Z,14.98
2022-10-15T20:02:15.844Z,10.05
2022-10-15T20:04:43.191Z,9.43
2022-10-15T20:07:10.697Z,15.73
2022-10-15T20:09:37.927Z,9.23
2022-10-15T20:12:05.452Z,7.85
2022-10-15T20:14:33.076Z,14.13
2022-10-15T20:17:00.602Z,9.48
2022-10-15T20:22:33.114Z,9.90
2022-10-15T20:25:05.265Z,12.98
2022-10-15T20:27:32.962Z,11.38
2022-10-15T20:30:00.568Z,9.15
2022-10-15T20:32:35.755Z,10.13
2022-10-15T20:35:04.629Z,14.23
2022-10-15T20:37:32.079Z,15.45
2022-10-15T20:40:00.127Z,11.45
2022-10-15T20:42:32.751Z,13.75
2022-10-15T20:45:01.721Z,8.88
2022-10-15T20:47:29.520Z,10.18
2022-10-15T20:49:56.720Z,11.82
2022-10-15T20:52:24.578Z,11.10
2022-10-15T20:54:54.733Z,11.65
2022-10-15T20:57:22.674Z,13.38
2022-10-15T20:59:49.786Z,8.30
2022-10-15T21:02:17.201Z,11.80
2022-10-15T21:04:46.784Z,10.63
2022-10-15T21:07:14.498Z,16.27
2022-10-15T21:09:42.005Z,12.40
2022-10-15T21:12:10.413Z,15.27
2022-10-15T21:14:37.926Z,8.32
2022-10-15T21:17:05.115Z,12.68
2022-10-15T21:19:33.191Z,10.30
2022-10-15T21:22:00.242Z,8.68
2022-10-15T21:24:30.300Z,9.15
2022-10-15T21:26:58.864Z,12.07
2022-10-15T21:29:27.723Z,9.80
2022-10-15T21:31:55.387Z,10.52
2022-10-15T21:34:27.905Z,14.15
2022-10-15T21:36:56.297Z,13.00
2022-10-15T21:39:23.820Z,12.65
2022-10-15T21:41:51.148Z,6.22
2022-10-15T21:44:18.312Z,9.85
2022-10-15T21:46:45.822Z,11.30
2022-10-15T21:49:18.946Z,13.52
2022-10-15T21:51:47.062Z,8.93
2022-10-15T21:54:14.566Z,11.55
2022-10-15T21:56:41.796Z,14.05
2022-10-15T21:59:09.066Z,8.38
2022-10-15T22:01:40.542Z,11.70
2022-10-15T22:04:10.109Z,14.65
2022-10-15T22:06:42.475Z,7.40
2022-10-15T22:11:40.493Z,9.88
2022-10-15T22:14:12.223Z,13.35
2022-10-15T22:16:42.811Z,10.00
2022-10-15T22:19:15.436Z,19.00
2022-10-15T22:21:42.760Z,14.23
2022-10-15T22:24:18.737Z,9.30
2022-10-15T22:26:48.871Z,11.27
2022-10-15T22:29:22.968Z,8.60
2022-10-15T22:31:51.062Z,7.38
2022-10-15T22:34:19.376Z,12.73
2022-10-15T22:36:47.318Z,12.32
2022-10-15T22:39:17.833Z,6.07
2022-10-15T22:41:47.036Z,8.95
2022-10-15T22:44:16.906Z,8.98
2022-10-15T22:46:49.642Z,8.68
2022-10-15T22:49:22.287Z,12.73
2022-10-15T22:51:51.555Z,8.65
2022-10-15T22:54:21.072Z,9.35
2022-10-15T22:56:51.843Z,8.52
2022-10-15T22:59:22.392Z,7.82
2022-10-15T23:01:49.582Z,11.88
2022-10-15T23:04:16.982Z,9.32
2022-10-15T23:06:46.584Z,10.13
2022-10-15T23:09:18.252Z,7.97
2022-10-15T23:11:47.372Z,9.13
2022-10-15T23:14:16.827Z,8.82
2022-10-15T23:16:46.934Z,11.55
2022-10-15T23:19:17.488Z,11.48
2022-10-15T23:21:45.769Z,10.48
2022-10-15T23:24:16.007Z,7.90
2022-10-15T23:26:44.753Z,10.52
2022-10-15T23:29:19.296Z,9.43
2022-10-15T23:31:50.202Z,9.77
2022-10-15T23:34:22.241Z,10.57
2022-10-15T23:36:49.989Z,12.13
2022-10-15T23:39:19.918Z,7.00
2022-10-15T23:41:47.581Z,11.25
2022-10-15T23:44:14.825Z,8.50
2022-10-15T23:46:42.785Z,10.05
2022-10-15T23:49:10.111Z,7.75
2022-10-15T23:51:38.309Z,9.90
2022-10-15T23:54:14.490Z,7.93
2022-10-15T23:56:41.758Z,10.02
2022-10-15T23:59:08.937Z,8.73
